Time;durP1;ratioP1;P1;durP2;ratioP2;P2;SDS_P1;SDS_P2;PMS_P1;PMS_P2;Temp;Humidity;BMP_temperature;BMP_pressure;BME280_temperature;BME280_humidity;BME280_pressure;Samples;Min_cycle;Max_cycle;Signal;HPM_P1;HPM_P2
2022/11/14 00:00:12;;;;;;;7.68;5.22;;;;;;;5.44;76.08;101494.06;5032466;28;20052;-76
2022/11/14 00:02:38;;;;;;;7.93;5.30;;;;;;;5.43;76.01;101492.34;5032622;28;20193;-76
2022/11/14 00:05:05;;;;;;;7.60;5.10;;;;;;;5.43;75.90;101497.50;5032753;28;20032;-76
2022/11/14 00:07:31;;;;;;;7.75;5.38;;;;;;;5.42;76.25;101500.94;5031478;28;20048;-76
2022/11/14 00:09:57;;;;;;;7.85;5.72;;;;;;;5.41;75.85;101494.03;5031398;28;20480;-76
2022/11/14 00:12:22;;;;;;;9.02;5.95;;;;;;;5.41;75.54;101496.63;5033008;28;20064;-76
2022/11/14 00:14:47;;;;;;;8.02;5.32;;;;;;;5.39;75.70;101488.84;5031791;28;20029;-76
2022/11/14 00:17:12;;;;;;;8.63;5.68;;;;;;;5.39;75.49;101485.44;5030791;28;20036;-77
2022/11/14 00:19:38;;;;;;;8.15;5.88;;;;;;;5.34;75.51;101480.25;5030437;28;20029;-76
2022/11/14 00:22:03;;;;;;;8.50;5.68;;;;;;;5.32;75.86;101475.06;5031261;28;20036;-77
2022/11/14 00:24:28;;;;;;;8.90;5.88;;;;;;;5.31;75.46;101475.06;5028643;28;20385;-76
2022/11/14 00:26:53;;;;;;;8.18;5.20;;;;;;;5.29;75.57;101475.06;5027429;28;20044;-77
2022/11/14 00:29:19;;;;;;;7.55;5.47;;;;;;;5.28;75.48;101482.78;5031794;28;20038;-76
2022/11/14 00:31:44;;;;;;;7.47;5.20;;;;;;;5.23;75.23;101469.84;5030723;28;20033;-77
2022/11/14 00:34:09;;;;;;;7.47;5.00;;;;;;;5.21;75.39;101476.72;5028205;28;20465;-76
2022/11/14 00:36:35;;;;;;;7.82;5.32;;;;;;;5.18;75.77;101463.78;5032648;28;20033;-76
2022/11/14 00:39:00;;;;;;;8.52;5.07;;;;;;;5.15;76.01;101454.31;5030501;28;20033;-76
2022/11/14 00:41:25;;;;;;;7.25;4.95;;;;;;;5.14;75.73;101457.75;5029161;28;20060;-76
2022/11/14 00:43:51;;;;;;;8.07;5.25;;;;;;;5.11;75.36;101451.72;5032694;28;20025;-77
2022/11/14 00:46:16;;;;;;;7.47;5.18;;;;;;;5.09;75.44;101448.28;5031110;28;20029;-76
2022/11/14 00:48:42;;;;;;;7.57;5.22;;;;;;;5.06;75.45;101450.81;5029490;28;20072;-76
2022/11/14 00:51:07;;;;;;;8.40;5.57;;;;;;;5.05;75.68;101449.09;5030242;28;20033;-76
2022/11/14 00:53:32;;;;;;;8.45;5.30;;;;;;;5.04;75.93;101447.38;5027852;28;20049;-76
2022/11/14 00:55:57;;;;;;;7.60;5.15;;;;;;;5.02;75.80;101449.94;5025758;28;20117;-76
2022/11/14 00:58:23;;;;;;;7.55;4.93;;;;;;;4.98;75.48;101443.88;5028424;28;20072;-76
2022/11/14 01:00:48;;;;;;;7.95;5.28;;;;;;;4.98;75.40;101446.47;5011084;28;20086;-76
2022/11/14 01:03:14;;;;;;;6.88;4.75;;;;;;;4.95;75.96;101443.00;5013375;28;20061;-76
2022/11/14 01:05:48;;;;;;;8.48;5.18;;;;;;;4.93;75.91;101450.75;5030460;28;20034;-76
2022/11/14 01:08:16;;;;;;;8.98;5.32;;;;;;;4.92;75.78;101449.00;5030934;28;20052;-76
2022/11/14 01:10:44;;;;;;;7.22;4.97;;;;;;;4.91;76.13;101436.09;5030322;28;20038;-76
2022/11/14 01:13:10;;;;;;;7.60;5.20;;;;;;;4.88;75.91;101442.09;5027613;28;20049;-76
2022/11/14 01:15:44;;;;;;;7.20;5.07;;;;;;;4.86;76.03;101433.50;5030772;28;20167;-76
2022/11/14 01:18:10;;;;;;;7.93;5.03;;;;;;;4.83;76.51;101436.91;5024989;28;20495;-76
2022/11/14 01:20:40;;;;;;;7.85;4.82;;;;;;;4.81;75.75;101432.56;5024942;28;20036;-76
2022/11/14 01:23:07;;;;;;;7.72;5.25;;;;;;;4.79;76.21;101432.56;5024013;28;20037;-76
2022/11/14 01:25:37;;;;;;;8.27;5.57;;;;;;;4.77;76.16;101423.13;5023039;28;20065;-77
2022/11/14 01:28:07;;;;;;;8.57;5.37;;;;;;;4.77;76.39;101423.13;5022854;28;20033;-76
2022/11/14 01:30:32;;;;;;;7.70;5.37;;;;;;;4.75;76.20;101419.66;5028644;28;20473;-76
2022/11/14 01:32:58;;;;;;;8.13;5.53;;;;;;;4.73;76.42;101417.06;5028815;28;20025;-76
2022/11/14 01:35:23;;;;;;;9.07;5.50;;;;;;;4.70;76.47;101417.03;5027419;28;20029;-76
2022/11/14 01:37:49;;;;;;;8.63;5.38;;;;;;;4.68;76.69;101403.28;5017594;28;20489;-76
2022/11/14 01:40:14;;;;;;;9.10;5.63;;;;;;;4.67;76.62;101396.41;5027608;28;20495;-76
2022/11/14 01:42:40;;;;;;;8.43;5.47;;;;;;;4.66;76.50;101399.84;5032122;28;20083;-76
2022/11/14 01:45:46;;;;;;;9.47;5.80;;;;;;;4.65;76.54;101398.09;5031597;28;20025;-76
2022/11/14 01:48:50;;;;;;;8.20;5.47;;;;;;;4.61;76.43;101399.78;5023235;28;20034;-76
2022/11/14 01:51:33;;;;;;;9.48;5.53;;;;;;;4.55;76.94;101392.00;4993281;28;20041;-76
2022/11/14 01:54:04;;;;;;;8.73;5.55;;;;;;;4.52;77.54;101390.28;5026730;28;20033;-76
2022/11/14 01:56:37;;;;;;;8.20;5.50;;;;;;;4.50;77.36;101388.53;5027911;28;20036;-76
2022/11/14 01:59:06;;;;;;;7.55;5.32;;;;;;;4.47;77.53;101380.75;5023200;28;20037;-76
2022/11/14 02:01:35;;;;;;;9.97;5.67;;;;;;;4.43;77.66;101377.31;5026374;28;20099;-76
2022/11/14 02:04:03;;;;;;;8.50;5.80;;;;;;;4.42;77.82;101375.59;5024870;28;20034;-76
2022/11/14 02:06:30;;;;;;;8.60;5.68;;;;;;;4.39;77.79;101368.69;5016409;28;20380;-76
2022/11/14 02:08:58;;;;;;;8.23;5.68;;;;;;;4.36;78.33;101368.66;5028915;28;20037;-76
2022/11/14 02:11:27;;;;;;;7.70;5.55;;;;;;;4.34;78.09;101362.63;5026621;28;20431;-77
2022/11/14 02:13:52;;;;;;;8.47;5.47;;;;;;;4.31;78.52;101364.34;5028052;28;20045;-76
2022/11/14 02:16:17;;;;;;;8.17;5.33;;;;;;;4.29;78.08;101359.16;5029329;28;20040;-76
2022/11/14 02:18:42;;;;;;;7.57;5.40;;;;;;;4.29;78.53;101354.00;5027091;28;20855;-77
2022/11/14 02:21:08;;;;;;;8.48;5.50;;;;;;;4.26;78.31;101348.84;5026137;28;20116;-76
2022/11/14 02:23:33;;;;;;;8.30;5.60;;;;;;;4.25;78.19;101352.28;5026983;28;20044;-76
2022/11/14 02:25:58;;;;;;;8.77;5.60;;;;;;;4.23;78.22;101344.50;5029683;28;20029;-76
2022/11/14 02:28:24;;;;;;;8.73;5.43;;;;;;;4.22;78.36;101349.66;5027612;28;20199;-76
2022/11/14 02:30:49;;;;;;;8.30;5.47;;;;;;;4.21;77.72;101347.94;5028955;28;20352;-76
2022/11/14 02:33:15;;;;;;;8.03;5.60;;;;;;;4.19;78.20;101342.75;5027091;28;20064;-76
2022/11/14 02:35:41;;;;;;;7.93;5.50;;;;;;;4.16;78.14;101341.88;5025848;28;20040;-76
2022/11/14 02:38:06;;;;;;;10.40;6.47;;;;;;;4.12;78.32;101338.41;5025613;28;20033;-76
2022/11/14 02:40:32;;;;;;;9.03;5.57;;;;;;;4.13;78.27;101347.00;5028243;28;20041;-76
2022/11/14 02:42:57;;;;;;;10.90;6.07;;;;;;;4.10;78.76;101338.38;5034941;28;20026;-76
2022/11/14 02:45:23;;;;;;;10.27;6.03;;;;;;;4.09;78.53;101341.84;5028921;28;20030;-77
2022/11/14 02:47:48;;;;;;;8.70;6.07;;;;;;;4.07;78.62;101343.53;5031189;28;20056;-76
2022/11/14 02:50:14;;;;;;;9.87;6.17;;;;;;;4.06;78.67;101336.66;5025049;28;20026;-76
2022/11/14 02:52:39;;;;;;;10.03;6.57;;;;;;;4.06;78.89;101336.66;5024381;28;20495;-76
2022/11/14 02:55:05;;;;;;;10.70;6.53;;;;;;;4.05;78.71;101345.22;5034372;28;20038;-76
2022/11/14 02:57:30;;;;;;;9.03;5.93;;;;;;;4.02;78.77;101345.19;5028083;28;20030;-76
2022/11/14 02:59:56;;;;;;;9.20;5.85;;;;;;;3.98;78.53;101343.44;5030355;28;20152;-76
2022/11/14 03:02:21;;;;;;;8.53;5.70;;;;;;;3.96;78.56;101339.97;5031648;28;20488;-76
2022/11/14 03:04:46;;;;;;;9.60;6.13;;;;;;;3.94;78.91;101336.50;5032074;28;20022;-76
2022/11/14 03:07:11;;;;;;;8.97;6.23;;;;;;;3.90;78.64;101332.22;5024513;28;20484;-76
2022/11/14 03:09:37;;;;;;;11.27;7.17;;;;;;;3.88;78.59;101328.75;5031123;28;20032;-76
2022/11/14 03:12:02;;;;;;;10.77;6.80;;;;;;;3.87;78.79;101329.59;5030352;28;20117;-76
2022/11/14 03:14:29;;;;;;;10.87;6.87;;;;;;;3.84;78.92;101329.56;5033839;28;20033;-76
2022/11/14 03:16:54;;;;;;;11.13;6.70;;;;;;;3.82;78.84;101331.25;5029326;28;20037;-76
2022/11/14 03:19:20;;;;;;;10.67;6.33;;;;;;;3.80;79.09;101334.66;5024277;28;20558;-76
2022/11/14 03:21:45;;;;;;;11.57;7.17;;;;;;;3.79;79.02;101325.22;5016173;28;20029;-76
2022/11/14 03:24:10;;;;;;;13.00;7.57;;;;;;;3.77;79.32;101332.06;5021693;28;20030;-75
2022/11/14 03:26:35;;;;;;;11.53;7.07;;;;;;;3.76;79.00;101327.75;5029102;28;20108;-76
2022/11/14 03:29:01;;;;;;;10.90;7.07;;;;;;;3.75;79.15;101322.59;5032219;28;20029;-76
2022/11/14 03:31:26;;;;;;;11.20;7.13;;;;;;;3.72;78.99;101323.44;5032422;28;20048;-76
2022/11/14 03:33:51;;;;;;;11.47;6.70;;;;;;;3.71;79.04;101314.00;5026085;28;20064;-76
2022/11/14 03:36:16;;;;;;;10.33;6.53;;;;;;;3.68;79.50;101318.22;5026352;28;20029;-76
2022/11/14 03:38:42;;;;;;;11.73;6.93;;;;;;;3.66;79.48;101320.81;5029399;28;20132;-76
2022/11/14 03:41:07;;;;;;;12.13;6.93;;;;;;;3.66;79.64;101320.81;5027530;28;20105;-76
2022/11/14 03:43:33;;;;;;;11.37;7.17;;;;;;;3.63;79.99;101313.03;5029462;28;20053;-76
2022/11/14 03:46:00;;;;;;;12.17;6.73;;;;;;;3.61;79.80;101309.59;5026863;28;20112;-76
2022/11/14 03:48:27;;;;;;;11.20;6.67;;;;;;;3.59;79.58;101308.72;5026032;28;20067;-76
2022/11/14 03:50:53;;;;;;;11.40;7.23;;;;;;;3.58;79.60;101310.44;5033192;28;20033;-76
2022/11/14 03:53:18;;;;;;;13.63;7.97;;;;;;;3.54;80.13;101305.25;5031810;28;20041;-76
2022/11/14 03:55:43;;;;;;;11.73;7.03;;;;;;;3.52;79.99;101306.94;5028296;28;20039;-76
2022/11/14 03:58:08;;;;;;;14.43;7.43;;;;;;;3.49;80.22;101311.19;5021290;28;20034;-76
2022/11/14 04:00:34;;;;;;;11.27;7.50;;;;;;;3.47;80.38;101305.16;5028949;28;20029;-76
2022/11/14 04:02:59;;;;;;;12.37;7.73;;;;;;;3.46;80.19;101305.16;5023989;28;20029;-76
2022/11/14 04:05:25;;;;;;;11.83;7.40;;;;;;;3.44;80.23;101294.84;5029990;28;20496;-76
2022/11/14 04:07:50;;;;;;;11.93;7.00;;;;;;;3.41;80.33;101287.13;5030657;28;20041;-76
2022/11/14 04:10:16;;;;;;;12.83;7.57;;;;;;;3.38;80.52;101293.91;5028218;28;20025;-76
2022/11/14 04:12:47;;;;;;;12.57;7.20;;;;;;;3.37;80.50;101280.19;5030958;28;20053;-76
2022/11/14 04:15:13;;;;;;;12.10;7.03;;;;;;;3.37;80.18;101277.63;5029015;28;20627;-76
2022/11/14 04:17:38;;;;;;;12.03;7.33;;;;;;;3.35;80.53;101279.31;5029186;28;20370;-76
2022/11/14 04:20:03;;;;;;;10.70;6.97;;;;;;;3.33;80.42;101271.56;5029661;28;20067;-76
2022/11/14 04:22:29;;;;;;;12.83;7.47;;;;;;;3.33;80.03;101281.84;5028179;28;20025;-76
2022/11/14 04:24:54;;;;;;;11.37;7.20;;;;;;;3.32;80.10;101266.41;5031541;28;20021;-76
2022/11/14 04:27:19;;;;;;;10.83;7.30;;;;;;;3.30;80.03;101266.41;5030434;28;20388;-76
2022/11/14 04:29:44;;;;;;;11.90;7.53;;;;;;;3.26;80.14;101267.22;5028369;28;20091;-76
2022/11/14 04:32:10;;;;;;;11.17;6.77;;;;;;;3.25;80.21;101273.22;5026194;28;20030;-76
2022/11/14 04:34:35;;;;;;;11.37;7.60;;;;;;;3.24;80.55;101279.19;5023954;28;20033;-76
2022/11/14 04:37:00;;;;;;;12.07;7.30;;;;;;;3.24;80.16;101280.91;5032815;28;20389;-76
2022/11/14 04:39:25;;;;;;;12.10;7.13;;;;;;;3.22;80.56;101280.03;5031054;28;20025;-76
2022/11/14 04:41:51;;;;;;;11.33;7.10;;;;;;;3.19;80.62;101276.56;5026542;28;20037;-76
2022/11/14 04:44:16;;;;;;;11.13;7.00;;;;;;;3.16;80.78;101273.97;5026596;28;20488;-76
2022/11/14 04:46:41;;;;;;;15.03;7.57;;;;;;;3.16;80.83;101275.69;5026660;28;20462;-76
2022/11/14 04:49:06;;;;;;;11.37;6.90;;;;;;;3.13;81.01;101273.91;5025351;28;20038;-76
2022/11/14 04:51:32;;;;;;;12.33;7.33;;;;;;;3.13;80.91;101275.63;5027440;28;20437;-76
2022/11/14 04:53:57;;;;;;;11.87;7.37;;;;;;;3.12;81.10;101274.75;5031516;28;20075;-76
2022/11/14 04:56:24;;;;;;;14.83;7.53;;;;;;;3.10;81.01;101278.16;5032084;28;20041;-76
2022/11/14 04:58:49;;;;;;;12.77;7.30;;;;;;;3.07;81.11;101268.72;5025517;28;20031;-76
2022/11/14 05:01:15;;;;;;;11.37;7.13;;;;;;;3.07;81.09;101263.59;5025996;28;20096;-76
2022/11/14 05:03:40;;;;;;;11.53;7.53;;;;;;;3.06;80.99;101263.53;5027247;28;20025;-76
2022/11/14 05:06:06;;;;;;;12.80;7.70;;;;;;;3.03;81.14;101254.09;5030405;28;20029;-76
2022/11/14 05:08:31;;;;;;;11.47;7.20;;;;;;;3.02;80.98;101254.94;5030399;28;20472;-76
2022/11/14 05:10:56;;;;;;;13.50;7.33;;;;;;;2.98;80.92;101256.63;5025439;28;20070;-76
2022/11/14 05:13:21;;;;;;;11.40;7.00;;;;;;;2.96;81.19;101253.16;5028706;28;20112;-76
2022/11/14 05:15:47;;;;;;;13.57;7.90;;;;;;;2.97;80.97;101241.16;5027152;28;20045;-76
2022/11/14 05:18:13;;;;;;;12.23;7.67;;;;;;;2.94;81.15;101247.13;5026577;28;20160;-76
2022/11/14 05:20:38;;;;;;;12.80;7.77;;;;;;;2.95;81.11;101247.97;5021330;28;20068;-76
2022/11/14 05:23:03;;;;;;;12.33;7.40;;;;;;;2.94;81.11;101246.25;5014184;28;20045;-76
2022/11/14 05:25:28;;;;;;;11.97;6.83;;;;;;;2.93;81.05;101252.25;5026692;28;20033;-76
2022/11/14 05:27:54;;;;;;;13.80;7.57;;;;;;;2.90;80.74;101249.66;5028068;28;20037;-76
2022/11/14 05:30:19;;;;;;;11.90;7.23;;;;;;;2.89;81.06;101246.22;5024657;28;20030;-76
2022/11/14 05:32:45;;;;;;;12.20;7.33;;;;;;;2.86;80.93;101239.34;5025522;28;20037;-76
2022/11/14 05:35:10;;;;;;;11.77;6.90;;;;;;;2.86;80.92;101238.44;5026476;28;20033;-76
2022/11/14 05:37:35;;;;;;;12.47;7.00;;;;;;;2.83;81.18;101230.69;5024416;28;20480;-76
2022/11/14 05:40:02;;;;;;;11.47;7.13;;;;;;;2.80;81.02;101231.53;5019698;28;20384;-76
2022/11/14 05:42:27;;;;;;;10.57;6.40;;;;;;;2.75;81.04;101230.59;5021238;28;20435;-76
2022/11/14 05:44:52;;;;;;;11.60;6.47;;;;;;;2.70;81.16;101222.84;5021786;28;20029;-76
2022/11/14 05:47:18;;;;;;;11.57;6.83;;;;;;;2.70;81.26;101222.00;5025728;28;20104;-75
2022/11/14 05:49:43;;;;;;;9.97;6.47;;;;;;;2.70;81.07;101222.00;5007044;28;20052;-76
2022/11/14 05:52:08;;;;;;;12.00;5.97;;;;;;;2.69;81.33;101210.84;5023457;28;20102;-76
2022/11/14 05:54:33;;;;;;;9.53;5.97;;;;;;;2.69;81.01;101215.13;5023842;28;20095;-76
2022/11/14 05:56:59;;;;;;;9.90;6.00;;;;;;;2.66;81.02;101209.94;5025321;28;20103;-76
2022/11/14 05:59:24;;;;;;;10.30;6.37;;;;;;;2.62;81.15;101211.63;5027423;28;20063;-76
2022/11/14 06:01:49;;;;;;;11.33;6.27;;;;;;;2.62;81.08;101210.75;5027741;28;20088;-76
2022/11/14 06:04:15;;;;;;;11.10;6.63;;;;;;;2.60;80.73;101210.75;5020173;28;20113;-76
2022/11/14 06:06:40;;;;;;;10.10;6.30;;;;;;;2.56;80.77;101214.94;5023296;28;20041;-76
2022/11/14 06:09:05;;;;;;;11.43;6.03;;;;;;;2.54;81.19;101211.53;5028761;28;20497;-76
2022/11/14 06:11:31;;;;;;;11.43;6.53;;;;;;;2.53;80.97;101212.38;5022995;28;20388;-76
2022/11/14 06:13:56;;;;;;;11.00;6.57;;;;;;;2.53;81.09;101214.94;5026236;28;20079;-76
2022/11/14 06:16:21;;;;;;;11.57;6.63;;;;;;;2.51;81.17;101215.72;5031618;28;20469;-76
2022/11/14 06:18:47;;;;;;;11.33;6.83;;;;;;;2.47;81.11;101214.84;5023137;28;20037;-76
2022/11/14 06:21:13;;;;;;;10.97;6.77;;;;;;;2.47;81.43;101219.13;5030272;28;20104;-76
2022/11/14 06:23:39;;;;;;;11.33;6.77;;;;;;;2.44;81.05;101209.66;5030471;28;20112;-76
2022/11/14 06:26:09;;;;;;;12.23;6.57;;;;;;;2.43;81.19;101218.19;5030894;28;20041;-76
2022/11/14 06:28:34;;;;;;;10.33;6.20;;;;;;;2.42;81.26;101221.59;5028210;28;20034;-76
2022/11/14 06:31:02;;;;;;;9.60;5.90;;;;;;;2.40;81.11;101218.16;5026354;28;20469;-76
2022/11/14 06:33:28;;;;;;;11.37;6.60;;;;;;;2.38;81.30;101225.84;5027500;28;20116;-76
2022/11/14 06:36:05;;;;;;;10.03;6.10;;;;;;;2.36;81.26;101221.53;5026015;28;20030;-76
2022/11/14 06:38:31;;;;;;;10.33;6.20;;;;;;;2.35;80.97;101222.38;5028262;28;20038;-76
2022/11/14 06:41:07;;;;;;;10.37;6.00;;;;;;;2.34;81.07;101231.78;5023201;28;20022;-75
2022/11/14 06:43:36;;;;;;;10.93;6.20;;;;;;;2.30;80.99;101217.19;5024923;28;20445;-76
2022/11/14 06:46:02;;;;;;;9.80;6.00;;;;;;;2.30;81.43;101227.47;5021506;28;20041;-76
2022/11/14 06:48:28;;;;;;;10.63;6.27;;;;;;;2.31;81.16;101225.72;5026762;28;20071;-76
2022/11/14 06:50:54;;;;;;;11.27;6.33;;;;;;;2.30;81.08;101224.00;5027854;28;20037;-76
2022/11/14 06:53:19;;;;;;;9.27;5.37;;;;;;;2.26;81.12;101221.38;5030650;28;20026;-76
2022/11/14 06:55:54;;;;;;;12.63;6.67;;;;;;;2.27;81.23;101220.56;5028260;28;20048;-76
2022/11/14 06:58:19;;;;;;;9.97;6.10;;;;;;;2.28;81.29;101222.28;5026986;28;20032;-76
2022/11/14 07:00:45;;;;;;;11.20;6.10;;;;;;;2.28;81.36;101221.44;5023579;28;20849;-76
2022/11/14 07:03:10;;;;;;;11.67;6.43;;;;;;;2.28;81.35;101219.72;5022628;28;20505;-76
2022/11/14 07:05:35;;;;;;;10.83;6.90;;;;;;;2.27;81.19;101220.56;5023927;28;20013;-76
2022/11/14 07:08:00;;;;;;;12.20;7.20;;;;;;;2.27;81.43;101223.13;5031610;28;20025;-76
2022/11/14 07:10:26;;;;;;;11.63;6.67;;;;;;;2.27;81.45;101225.69;5030978;28;20029;-75
2022/11/14 07:12:51;;;;;;;10.57;7.20;;;;;;;2.30;81.65;101236.84;5028897;28;20076;-76
2022/11/14 07:15:16;;;;;;;11.90;7.57;;;;;;;2.28;81.18;101224.84;5027242;28;20368;-76
2022/11/14 07:17:41;;;;;;;9.60;5.97;;;;;;;2.31;81.46;101228.31;5022130;28;20064;-76
2022/11/14 07:20:07;;;;;;;11.30;7.10;;;;;;;2.30;81.61;101231.72;5027135;28;20064;-76
2022/11/14 07:22:32;;;;;;;11.70;6.20;;;;;;;2.33;81.71;101226.63;5029803;28;20358;-76
2022/11/14 07:24:58;;;;;;;11.03;6.97;;;;;;;2.35;81.17;101230.09;5030083;28;20060;-76
2022/11/14 07:27:23;;;;;;;11.93;6.83;;;;;;;2.35;81.70;101235.22;5032310;28;20033;-76
2022/11/14 07:29:48;;;;;;;10.93;6.73;;;;;;;2.35;81.90;101237.78;5024763;28;20042;-76
2022/11/14 07:32:13;;;;;;;11.97;7.13;;;;;;;2.37;82.13;101230.97;5020149;28;20037;-76
2022/11/14 07:34:39;;;;;;;10.47;6.30;;;;;;;2.39;82.26;101226.72;5032499;28;20090;-76
2022/11/14 07:37:04;;;;;;;11.47;6.43;;;;;;;2.41;82.34;101225.91;5033952;28;20033;-76
2022/11/14 07:39:29;;;;;;;10.70;6.57;;;;;;;2.43;81.85;101224.22;5033835;28;20029;-76
2022/11/14 07:41:54;;;;;;;10.00;6.20;;;;;;;2.46;82.24;101213.13;5025016;28;20434;-76
2022/11/14 07:44:20;;;;;;;10.73;6.20;;;;;;;2.50;82.53;101216.56;5025867;28;20029;-76
2022/11/14 07:46:45;;;;;;;10.73;6.33;;;;;;;2.52;82.27;101215.78;5031005;28;20043;-76
2022/11/14 07:49:10;;;;;;;9.63;6.27;;;;;;;2.54;81.79;101214.09;5030963;28;20025;-77
2022/11/14 07:51:37;;;;;;;10.83;6.10;;;;;;;2.54;82.21;101214.09;5020015;28;20519;-77
2022/11/14 07:54:02;;;;;;;9.03;5.90;;;;;;;2.56;82.54;101207.25;5033526;28;20039;-76
2022/11/14 07:56:28;;;;;;;11.17;5.70;;;;;;;2.62;82.65;101218.44;5029939;28;20051;-77
2022/11/14 07:58:53;;;;;;;8.50;5.60;;;;;;;2.64;82.79;101216.78;5032844;28;20033;-77
2022/11/14 08:01:19;;;;;;;9.37;5.50;;;;;;;2.68;82.87;101213.41;5034392;28;20095;-77
2022/11/14 08:03:44;;;;;;;9.90;5.83;;;;;;;2.73;82.43;101219.47;5021644;28;20478;-77
2022/11/14 08:06:12;;;;;;;10.37;6.27;;;;;;;2.78;82.59;101219.53;5028439;28;20072;-76
2022/11/14 08:08:37;;;;;;;11.00;6.17;;;;;;;2.81;82.47;101217.84;5010482;28;20044;-76
2022/11/14 08:11:03;;;;;;;9.20;6.03;;;;;;;2.85;82.64;101213.59;5028815;28;20033;-77
2022/11/14 08:13:29;;;;;;;8.57;5.67;;;;;;;2.88;82.83;101196.53;5027950;28;20049;-76
2022/11/14 08:15:54;;;;;;;11.67;6.33;;;;;;;2.93;82.37;101195.69;5026833;28;20292;-76
2022/11/14 08:18:20;;;;;;;9.60;5.93;;;;;;;2.96;82.90;101191.47;5028278;28;20036;-76
2022/11/14 08:20:45;;;;;;;9.60;5.70;;;;;;;3.00;82.67;101190.66;5028695;28;20025;-76
2022/11/14 08:23:11;;;;;;;10.20;5.97;;;;;;;3.05;82.97;101190.72;5027132;28;20116;-76
2022/11/14 08:25:37;;;;;;;10.17;6.07;;;;;;;3.08;82.88;101190.72;5027719;28;20691;-76
2022/11/14 08:28:02;;;;;;;9.93;6.00;;;;;;;3.11;82.89;101188.19;5025076;28;20543;-77
2022/11/14 08:30:28;;;;;;;9.57;5.93;;;;;;;3.15;82.86;101187.38;5025980;28;20452;-77
2022/11/14 08:32:53;;;;;;;9.40;5.63;;;;;;;3.20;83.30;101187.44;5007534;28;20447;-76
2022/11/14 08:35:18;;;;;;;10.03;5.93;;;;;;;3.25;83.28;101180.63;5024543;28;20040;-76
2022/11/14 08:37:44;;;;;;;9.53;6.30;;;;;;;3.31;83.31;101174.69;5024311;28;20025;-77
2022/11/14 08:40:10;;;;;;;10.30;6.70;;;;;;;3.36;83.65;101177.28;5026324;28;20092;-76
2022/11/14 08:42:35;;;;;;;9.43;6.07;;;;;;;3.41;83.88;101186.81;5021567;28;20037;-77
2022/11/14 08:45:01;;;;;;;8.57;5.80;;;;;;;3.46;83.54;101179.13;5026707;28;20029;-77
2022/11/14 08:47:26;;;;;;;10.57;6.00;;;;;;;3.52;83.87;101180.88;5026276;28;20120;-77
2022/11/14 08:49:51;;;;;;;9.43;6.20;;;;;;;3.58;83.80;101183.53;5026523;28;20496;-77
2022/11/14 08:52:16;;;;;;;10.43;6.20;;;;;;;3.64;83.82;101178.41;5024852;28;20053;-77
2022/11/14 08:54:42;;;;;;;9.70;6.37;;;;;;;3.70;84.40;101168.19;5022425;28;20037;-77
2022/11/14 08:57:07;;;;;;;10.43;6.13;;;;;;;3.76;84.24;101170.78;5027462;28;20040;-77
2022/11/14 08:59:32;;;;;;;10.90;6.43;;;;;;;3.83;84.36;101173.41;5027995;28;20821;-77
2022/11/14 09:01:58;;;;;;;10.90;5.97;;;;;;;3.89;84.56;101165.75;5026690;28;20033;-77
2022/11/14 09:04:23;;;;;;;9.97;6.20;;;;;;;3.97;84.81;101168.38;5027658;28;20083;-77
2022/11/14 09:06:48;;;;;;;12.97;7.40;;;;;;;4.03;84.74;101161.56;5026554;28;20056;-77
2022/11/14 09:09:14;;;;;;;11.97;7.30;;;;;;;4.11;85.16;101156.44;5044882;28;20056;-77
2022/11/14 09:11:39;;;;;;;10.90;6.63;;;;;;;4.19;84.81;101153.91;5027330;28;20033;-77
2022/11/14 09:14:04;;;;;;;13.30;7.60;;;;;;;4.26;85.11;101153.09;5027993;28;20042;-77
2022/11/14 09:16:30;;;;;;;11.93;7.20;;;;;;;4.33;84.98;101147.13;5027545;28;20041;-76
2022/11/14 09:18:55;;;;;;;12.97;7.40;;;;;;;4.40;85.09;101148.88;5028611;28;20024;-77
2022/11/14 09:21:20;;;;;;;12.95;7.45;;;;;;;4.47;84.95;101154.03;5027744;28;20131;-76
2022/11/14 09:23:47;;;;;;;13.50;7.80;;;;;;;4.51;85.05;101148.06;5027534;28;20621;-74
2022/11/14 09:26:12;;;;;;;14.93;7.73;;;;;;;4.58;84.38;101149.81;5023755;28;20536;-76
2022/11/14 09:28:37;;;;;;;11.57;7.53;;;;;;;4.64;84.56;101143.81;5025206;28;20171;-77
2022/11/14 09:31:08;;;;;;;12.63;7.73;;;;;;;4.68;84.58;101141.25;5025183;28;20116;-77
2022/11/14 09:33:34;;;;;;;12.77;8.10;;;;;;;4.74;84.49;101134.41;5024930;28;20075;-77
2022/11/14 09:36:01;;;;;;;12.47;7.70;;;;;;;4.77;84.40;101130.13;5023756;28;20033;-77
2022/11/14 09:38:27;;;;;;;11.27;7.85;;;;;;;4.81;84.04;101123.25;5025238;28;20021;-77
2022/11/14 09:41:08;;;;;;;14.55;8.00;;;;;;;4.86;84.06;101126.69;5025213;28;20040;-77
2022/11/14 09:43:46;;;;;;;13.20;8.13;;;;;;;4.90;84.34;101133.59;5027101;28;20029;-77
2022/11/14 09:46:32;;;;;;;12.95;8.43;;;;;;;4.94;83.50;101132.75;5022347;28;20025;-77
2022/11/14 09:48:58;;;;;;;12.75;7.88;;;;;;;5.00;83.79;101142.22;5023735;28;20026;-77
2022/11/14 09:51:31;;;;;;;14.18;8.93;;;;;;;5.04;83.51;101137.91;5026088;28;20030;-77
2022/11/14 09:54:21;;;;;;;14.43;8.85;;;;;;;5.09;84.08;101131.91;5023598;28;20580;-77
2022/11/14 09:56:47;;;;;;;13.60;8.15;;;;;;;5.14;84.01;101134.47;5024667;28;21453;-78
2022/11/14 09:59:13;;;;;;;13.13;8.18;;;;;;;5.18;84.07;101141.38;5024546;28;20030;-77
2022/11/14 10:01:55;;;;;;;13.60;8.80;;;;;;;5.22;84.19;101131.91;5025159;28;20064;-76
2022/11/14 10:04:48;;;;;;;;;;;;;;;5.28;83.32;101137.97;5023707;28;20029;-77
2022/11/14 10:07:28;;;;;;;14.18;8.18;;;;;;;5.32;83.80;101137.09;5006439;28;20275;-77
2022/11/14 10:10:25;;;;;;;13.70;7.70;;;;;;;5.36;83.85;101140.56;5023335;28;20037;-77
2022/11/14 10:13:07;;;;;;;15.20;8.98;;;;;;;5.40;83.77;101138.81;5021732;28;20045;-77
2022/11/14 10:15:53;;;;;;;14.00;8.80;;;;;;;5.44;83.09;101127.66;5023517;28;20076;-76
2022/11/14 10:18:52;;;;;;;14.07;9.05;;;;;;;5.46;83.18;101131.94;5023385;28;20883;-77
2022/11/14 10:21:29;;;;;;;15.63;9.25;;;;;;;5.51;83.16;101126.78;5005356;28;20487;-77
2022/11/14 10:24:25;;;;;;;13.50;8.48;;;;;;;5.55;83.05;101131.06;5027147;28;20040;-77
2022/11/14 10:27:02;;;;;;;16.33;9.45;;;;;;;5.59;83.31;101131.94;5025995;28;20037;-77
2022/11/14 10:29:53;;;;;;;14.43;9.23;;;;;;;5.63;82.87;101136.25;5026501;28;20826;-77
2022/11/14 10:32:59;;;;;;;17.27;9.23;;;;;;;5.69;83.36;101117.31;5027700;28;20109;-77
2022/11/14 10:35:45;;;;;;;15.75;9.57;;;;;;;5.74;83.28;101118.16;5026533;28;20488;-76
2022/11/14 10:38:51;;;;;;;15.73;9.10;;;;;;;5.79;83.05;101124.19;5026668;28;20392;-77
2022/11/14 10:41:16;;;;;;;15.23;9.10;;;;;;;5.83;83.74;101117.28;5025010;28;20124;-77
2022/11/14 10:43:46;;;;;;;17.17;10.07;;;;;;;5.89;83.61;101125.03;5025356;28;20116;-77
2022/11/14 10:46:20;;;;;;;18.15;9.75;;;;;;;5.95;83.46;101124.16;5026039;28;20044;-76
2022/11/14 10:48:48;;;;;;;16.73;10.20;;;;;;;5.99;83.72;101125.84;5027145;28;20101;-76
2022/11/14 10:51:32;;;;;;;17.98;10.88;;;;;;;6.04;84.01;101122.44;5008459;28;20120;-77
2022/11/14 10:54:24;;;;;;;18.33;10.15;;;;;;;6.11;84.05;101104.34;5008499;28;20045;-80
2022/11/14 10:56:51;;;;;;;21.55;11.00;;;;;;;6.16;83.04;101100.88;5025095;28;20418;-77
2022/11/14 10:59:17;;;;;;;20.25;11.82;;;;;;;6.18;83.21;101104.31;5026521;28;20041;-77
2022/11/14 11:01:52;;;;;;;22.33;11.85;;;;;;;6.21;83.02;101101.72;5029422;28;20029;-76
2022/11/14 11:04:28;;;;;;;17.83;11.23;;;;;;;6.25;83.31;101104.31;5028740;28;20044;-75
2022/11/14 11:12:50;;;;;;;22.15;13.43;;;;;;;6.40;83.27;101088.72;5029974;28;20068;-77
2022/11/14 11:15:37;;;;;;;22.67;13.45;;;;;;;6.45;83.07;101079.25;5030776;28;20037;-76
2022/11/14 11:18:28;;;;;;;22.10;13.63;;;;;;;6.51;82.69;101081.78;5030300;28;20051;-75
2022/11/14 11:21:11;;;;;;;23.60;13.40;;;;;;;6.60;82.95;101072.28;5028205;28;20056;-76
2022/11/14 11:23:51;;;;;;;23.55;14.65;;;;;;;6.69;82.97;101067.03;5026097;28;20021;-76
2022/11/14 11:26:18;;;;;;;23.85;14.13;;;;;;;6.79;83.33;101063.53;5025431;28;20029;-77
2022/11/14 11:29:08;;;;;;;27.63;16.45;;;;;;;6.87;82.43;101055.72;5026396;28;20369;-77
2022/11/14 11:31:53;;;;;;;27.48;16.00;;;;;;;6.93;82.39;101066.00;5026236;28;20084;-77
2022/11/14 11:34:25;;;;;;;27.08;16.20;;;;;;;7.01;82.73;101068.53;5026457;28;20480;-77
2022/11/14 11:37:17;;;;;;;24.70;15.52;;;;;;;7.07;82.23;101068.50;5030525;28;20552;-77